To NAV CANADA Home Page Login to a new session Search on AWWS site Feedback and Comments Disclaimer Vers la page française équivalente Tips FAQ What's new on the site To the Forecasts and Observations / NOTAM section To "File a Flight Plan" website Publications and other links Update of the User's profile FIC Telephone Numbers My Weather Data Folder Route Weather Data Regional Weather Data Local Weather Data To the Forecasts and Observations / NOTAM section
Request Generated 08/03/2015 at 04:34:43 UTC . Weather information available at that time is displayed.

METAR/TAF

SASKATOON/JOHN G. DIEFENBAKER INTL/SK    

METAR CYXE 030400Z 04002KT 15SM SCT300 17/12 A3000 RMK CI3 SLP164
DENSITY ALT 2200FT=
METAR CYXE 030300Z 30004KT 15SM FEW300 19/13 A2999 RMK CI2 SLP163
DENSITY ALT 2300FT=
METAR CYXE 030200Z 32003KT 15SM FEW300 22/12 A2998 RMK CI2 SLP158
DENSITY ALT 2700FT=

TAF CYXE 022338Z 0300/0324 31006KT P6SM FEW060
BECMG 0301/0303 29006KT SKC
FM030600 VRB03KT P6SM SKC
BECMG 0316/0318 07008KT
RMK NXT FCST BY 030600Z=
Your time UTC time
Weather data provided by Environment Canada and NAV CANADA